Greens Farms, Connecticut
Current Conditions -  °F | °C
As of 4:52 AM on Monday 26 Jan 2015 (Local Time) from KBDR Reporting Station
Overcast Overcast  
Wind Chill: 10°   Ceiling: 5500
Heat Index: 22°   Visibility: 10mi
Dew Point:   Wind: 12mph
Humidity: 55%   Direction: 30°NNE
Pressure: 30.05"   Gusts: NA
Location:  41.12°N, 73.32°W
Report Text: KBDR 260952Z AUTO 03010KT 10SM OVC055 M06/M13 A3005 RMK AO2 SLP175 T10561133
Loading
Personal Weather Stations






























Interactive Weather Map New forecast layout! Learn more

10-Day Weather Forecast

Advertisements
Track Severe Weather on mobile